Time;durP1;ratioP1;P1;durP2;ratioP2;P2;SDS_P1;SDS_P2;PMS_P1;PMS_P2;Temp;Humidity;BMP_temperature;BMP_pressure;BME280_temperature;BME280_humidity;BME280_pressure;Samples;Min_cycle;Max_cycle;Signal;HPM_P1;HPM_P2
2022/07/07 00:01:56;;;;;;;9.82;5.22;;;;;;;;;;6070235;23;20028;-79
2022/07/07 00:04:24;;;;;;;8.50;4.57;;;;;;;;;;6070253;23;20543;-80
2022/07/07 00:06:51;;;;;;;12.20;5.15;;;;;;;;;;6069802;23;20032;-80
2022/07/07 00:09:18;;;;;;;9.82;4.97;;;;;;;;;;6044629;23;20031;-80
2022/07/07 00:11:45;;;;;;;7.15;4.80;;;;;;;;;;6070973;23;20024;-79
2022/07/07 00:14:12;;;;;;;11.10;5.13;;;;;;;;;;6070483;23;20461;-81
2022/07/07 00:16:39;;;;;;;10.10;5.28;;;;;;;;;;6070084;23;20028;-81
2022/07/07 00:19:06;;;;;;;11.13;4.63;;;;;;;;;;6069812;23;20090;-83
2022/07/07 00:21:34;;;;;;;11.90;5.18;;;;;;;;;;6070369;23;20098;-81
2022/07/07 00:24:01;;;;;;;8.93;4.82;;;;;;;;;;6070020;23;20020;-80
2022/07/07 00:26:30;;;;;;;12.32;5.88;;;;;;;;;;6065703;23;20099;-81
2022/07/07 00:28:57;;;;;;;12.23;5.90;;;;;;;;;;6069436;23;20378;-80
2022/07/07 00:31:24;;;;;;;13.13;5.22;;;;;;;;;;6070204;23;20027;-80
2022/07/07 00:33:51;;;;;;;8.93;5.40;;;;;;;;;;6069413;23;20098;-80
2022/07/07 00:36:19;;;;;;;9.57;4.80;;;;;;;;;;6069029;23;20110;-80
2022/07/07 00:38:46;;;;;;;16.33;5.97;;;;;;;;;;6045289;23;20804;-80
2022/07/07 00:41:14;;;;;;;13.68;5.50;;;;;;;;;;6070235;23;20111;-80
2022/07/07 00:43:42;;;;;;;10.70;5.00;;;;;;;;;;6069768;23;20025;-80
2022/07/07 00:46:09;;;;;;;14.68;4.82;;;;;;;;;;6070735;23;20027;-80
2022/07/07 00:48:37;;;;;;;9.18;4.85;;;;;;;;;;6065479;23;20023;-80
2022/07/07 00:51:05;;;;;;;11.43;4.70;;;;;;;;;;6065514;23;20024;-80
2022/07/07 00:53:32;;;;;;;8.25;4.40;;;;;;;;;;6065260;23;20030;-81
2022/07/07 00:55:59;;;;;;;11.38;4.30;;;;;;;;;;6064437;23;20032;-80
2022/07/07 00:58:27;;;;;;;13.20;4.60;;;;;;;;;;6065324;23;20049;-80
2022/07/07 01:00:55;;;;;;;7.90;4.22;;;;;;;;;;6045080;23;20035;-80
2022/07/07 01:03:22;;;;;;;9.65;4.85;;;;;;;;;;6069704;23;20023;-80
2022/07/07 01:05:50;;;;;;;9.63;4.47;;;;;;;;;;6069181;23;20028;-79
2022/07/07 01:08:17;;;;;;;12.02;4.40;;;;;;;;;;6044493;23;20527;-80
2022/07/07 01:10:45;;;;;;;10.52;4.20;;;;;;;;;;6069685;23;20029;-81
2022/07/07 01:13:13;;;;;;;10.80;3.58;;;;;;;;;;6069495;23;20026;-80
2022/07/07 01:15:40;;;;;;;10.25;3.50;;;;;;;;;;6070497;23;20041;-80
2022/07/07 01:18:07;;;;;;;11.52;3.38;;;;;;;;;;6070279;23;20076;-81
2022/07/07 01:20:34;;;;;;;7.38;3.55;;;;;;;;;;6070837;23;20027;-80
2022/07/07 01:23:02;;;;;;;8.00;3.40;;;;;;;;;;6070024;23;20896;-81
2022/07/07 01:25:29;;;;;;;6.35;3.05;;;;;;;;;;6051343;23;20027;-81
2022/07/07 01:27:56;;;;;;;10.27;3.20;;;;;;;;;;6072328;23;20028;-80
2022/07/07 01:30:23;;;;;;;6.65;3.10;;;;;;;;;;6070665;23;20839;-81
2022/07/07 01:32:50;;;;;;;7.43;2.70;;;;;;;;;;6070267;23;20110;-81
2022/07/07 01:35:17;;;;;;;7.13;2.92;;;;;;;;;;6070995;23;20031;-80
2022/07/07 01:37:47;;;;;;;13.25;2.50;;;;;;;;;;6069686;23;20054;-80
2022/07/07 01:40:14;;;;;;;6.68;2.10;;;;;;;;;;6068938;23;20019;-81
2022/07/07 01:42:41;;;;;;;8.00;2.30;;;;;;;;;;6066094;23;20029;-81
2022/07/07 01:45:10;;;;;;;8.45;2.28;;;;;;;;;;6039373;23;20038;-81
2022/07/07 01:47:37;;;;;;;6.28;1.90;;;;;;;;;;6065389;23;20023;-80
2022/07/07 01:50:05;;;;;;;9.30;2.03;;;;;;;;;;6069025;23;20110;-83
2022/07/07 01:52:32;;;;;;;5.15;1.80;;;;;;;;;;6044806;23;20015;-81
2022/07/07 01:54:59;;;;;;;5.15;1.50;;;;;;;;;;6070636;23;20102;-80
2022/07/07 01:57:26;;;;;;;6.10;1.65;;;;;;;;;;6070628;23;20023;-80
2022/07/07 01:59:53;;;;;;;7.38;1.85;;;;;;;;;;6069982;23;20758;-80
2022/07/07 02:02:21;;;;;;;4.95;1.63;;;;;;;;;;6071694;23;20754;-80
2022/07/07 02:04:49;;;;;;;6.43;1.80;;;;;;;;;;6068642;23;20015;-80
2022/07/07 02:07:17;;;;;;;4.45;1.58;;;;;;;;;;6069998;23;20033;-81
2022/07/07 02:09:44;;;;;;;3.92;1.75;;;;;;;;;;6068725;23;20061;-85
2022/07/07 02:12:11;;;;;;;5.35;1.80;;;;;;;;;;6069761;23;20163;-81
2022/07/07 02:14:38;;;;;;;7.60;1.70;;;;;;;;;;6069515;23;20032;-82
2022/07/07 02:17:05;;;;;;;4.88;1.80;;;;;;;;;;6068746;23;20084;-81
2022/07/07 02:19:32;;;;;;;4.15;1.80;;;;;;;;;;6069755;23;20030;-81
2022/07/07 02:21:59;;;;;;;5.68;2.05;;;;;;;;;;6070116;23;20716;-82
2022/07/07 02:24:29;;;;;;;4.07;1.50;;;;;;;;;;6070803;23;20419;-81
2022/07/07 02:26:56;;;;;;;6.22;2.20;;;;;;;;;;6071742;23;20030;-80
2022/07/07 02:29:23;;;;;;;4.38;1.73;;;;;;;;;;6072019;23;20033;-82
2022/07/07 02:31:51;;;;;;;5.00;2.17;;;;;;;;;;6072094;23;20424;-81
2022/07/07 02:34:18;;;;;;;3.78;1.90;;;;;;;;;;6071645;23;20055;-81
2022/07/07 02:36:45;;;;;;;6.85;2.22;;;;;;;;;;6070416;23;20027;-81
2022/07/07 02:39:12;;;;;;;5.07;2.03;;;;;;;;;;6045011;23;20029;-81
2022/07/07 02:41:39;;;;;;;7.63;2.33;;;;;;;;;;6046255;23;20526;-81
2022/07/07 02:44:06;;;;;;;6.57;2.30;;;;;;;;;;6045679;23;20024;-81
2022/07/07 02:46:33;;;;;;;8.77;2.30;;;;;;;;;;6045310;23;20205;-83
2022/07/07 02:49:01;;;;;;;5.75;2.40;;;;;;;;;;6066839;23;20075;-81
2022/07/07 02:51:28;;;;;;;12.07;2.30;;;;;;;;;;6039636;23;20019;-80
2022/07/07 02:53:55;;;;;;;7.00;2.50;;;;;;;;;;6068743;23;20032;-81
2022/07/07 02:56:22;;;;;;;6.28;2.70;;;;;;;;;;6070721;23;20038;-80
2022/07/07 02:58:49;;;;;;;7.10;2.42;;;;;;;;;;6051348;23;20547;-82
2022/07/07 03:01:16;;;;;;;5.00;2.45;;;;;;;;;;6064693;23;20030;-81
2022/07/07 03:03:44;;;;;;;5.63;2.67;;;;;;;;;;6067010;23;20027;-81
2022/07/07 03:06:11;;;;;;;6.40;2.67;;;;;;;;;;6070320;23;20677;-81
2022/07/07 03:08:38;;;;;;;7.63;2.70;;;;;;;;;;6070116;23;20098;-81
2022/07/07 03:11:06;;;;;;;5.25;2.40;;;;;;;;;;6069455;23;20063;-81
2022/07/07 03:13:33;;;;;;;4.53;2.50;;;;;;;;;;6070496;23;20806;-81
2022/07/07 03:16:00;;;;;;;7.70;2.97;;;;;;;;;;6070540;23;20083;-81
2022/07/07 03:18:28;;;;;;;9.93;3.10;;;;;;;;;;6070055;23;20078;-81
2022/07/07 03:20:55;;;;;;;7.22;2.83;;;;;;;;;;6070509;23;20761;-81
2022/07/07 03:23:22;;;;;;;6.43;2.88;;;;;;;;;;6069883;23;20031;-81
2022/07/07 03:25:50;;;;;;;6.88;2.80;;;;;;;;;;6065832;23;20027;-82
2022/07/07 03:28:17;;;;;;;7.50;3.20;;;;;;;;;;6068863;23;20024;-81
2022/07/07 03:30:44;;;;;;;6.78;3.28;;;;;;;;;;6069996;23;20060;-82
2022/07/07 03:33:11;;;;;;;7.90;3.47;;;;;;;;;;6069849;23;20027;-82
2022/07/07 03:35:39;;;;;;;7.35;3.33;;;;;;;;;;6070457;23;20110;-82
2022/07/07 03:38:06;;;;;;;7.60;3.08;;;;;;;;;;6070656;23;20033;-82
2022/07/07 03:40:36;;;;;;;8.80;3.35;;;;;;;;;;6068424;23;20023;-81
2022/07/07 03:43:03;;;;;;;10.32;3.90;;;;;;;;;;6066544;23;20087;-83
2022/07/07 03:45:33;;;;;;;7.32;3.28;;;;;;;;;;6065523;23;20045;-81
2022/07/07 03:48:00;;;;;;;13.13;3.67;;;;;;;;;;6065373;23;20023;-82
2022/07/07 03:50:27;;;;;;;7.70;3.25;;;;;;;;;;6068985;23;20070;-80
2022/07/07 03:52:54;;;;;;;8.85;2.72;;;;;;;;;;6070768;23;20056;-81
2022/07/07 03:55:22;;;;;;;9.52;2.70;;;;;;;;;;6069439;23;20104;-81
2022/07/07 03:57:56;;;;;;;8.05;2.50;;;;;;;;;;6070228;23;20028;-81
2022/07/07 04:00:23;;;;;;;7.75;2.00;;;;;;;;;;6070233;23;20112;-82
2022/07/07 04:02:50;;;;;;;8.60;2.20;;;;;;;;;;6070029;23;20482;-80
2022/07/07 04:05:20;;;;;;;5.95;2.08;;;;;;;;;;6070024;23;20027;-80
2022/07/07 04:07:47;;;;;;;9.52;2.30;;;;;;;;;;6070168;23;20031;-80
2022/07/07 04:10:15;;;;;;;10.65;2.10;;;;;;;;;;6069022;23;20065;-81
2022/07/07 04:12:42;;;;;;;10.15;2.30;;;;;;;;;;6070857;23;20031;-80
2022/07/07 04:15:09;;;;;;;11.45;2.00;;;;;;;;;;6069385;23;20079;-80
2022/07/07 04:17:36;;;;;;;6.03;1.90;;;;;;;;;;6069526;23;20052;-84
2022/07/07 04:20:04;;;;;;;7.18;1.80;;;;;;;;;;6067993;23;20075;-80
2022/07/07 04:22:32;;;;;;;5.50;1.63;;;;;;;;;;6068988;23;20031;-80
2022/07/07 04:24:59;;;;;;;8.57;2.03;;;;;;;;;;6064085;23;20027;-80
2022/07/07 04:27:26;;;;;;;4.80;1.65;;;;;;;;;;6069765;23;20027;-81
2022/07/07 04:29:53;;;;;;;10.88;2.17;;;;;;;;;;6069273;23;20027;-80
2022/07/07 04:32:20;;;;;;;7.18;1.95;;;;;;;;;;6069818;23;20028;-83
2022/07/07 04:34:47;;;;;;;16.77;2.97;;;;;;;;;;6069277;23;20023;-80
2022/07/07 04:37:14;;;;;;;5.68;2.20;;;;;;;;;;6069349;23;20795;-80
2022/07/07 04:39:42;;;;;;;10.13;2.15;;;;;;;;;;6069886;23;20030;-83
2022/07/07 04:42:09;;;;;;;10.25;2.00;;;;;;;;;;6069872;23;20083;-80
2022/07/07 04:44:36;;;;;;;9.32;1.83;;;;;;;;;;6070571;23;20027;-81
2022/07/07 04:47:04;;;;;;;10.60;2.10;;;;;;;;;;6068272;23;20461;-81
2022/07/07 04:49:31;;;;;;;8.85;1.80;;;;;;;;;;6065583;23;20027;-82
2022/07/07 04:51:58;;;;;;;7.32;1.92;;;;;;;;;;6063875;23;20031;-83
2022/07/07 04:54:25;;;;;;;9.07;1.80;;;;;;;;;;6069654;23;20470;-80
2022/07/07 04:56:53;;;;;;;10.27;1.70;;;;;;;;;;6045539;23;20522;-81
2022/07/07 04:59:20;;;;;;;10.15;1.52;;;;;;;;;;6069970;23;20870;-81
2022/07/07 05:01:47;;;;;;;6.78;2.05;;;;;;;;;;6069495;23;20033;-81
2022/07/07 05:04:17;;;;;;;12.23;1.95;;;;;;;;;;6066600;23;20887;-81
2022/07/07 05:06:44;;;;;;;12.68;1.92;;;;;;;;;;6069971;23;20106;-81
2022/07/07 05:09:11;;;;;;;7.90;1.55;;;;;;;;;;6069319;23;20300;-80
2022/07/07 05:11:38;;;;;;;7.45;1.58;;;;;;;;;;6069612;23;20066;-82
2022/07/07 05:14:08;;;;;;;11.65;1.88;;;;;;;;;;6069713;23;20027;-80
2022/07/07 05:16:35;;;;;;;16.15;2.10;;;;;;;;;;6069058;23;20027;-81
2022/07/07 05:19:03;;;;;;;12.18;1.77;;;;;;;;;;6068574;23;20150;-80
2022/07/07 05:21:30;;;;;;;11.60;1.50;;;;;;;;;;6069933;23;20102;-81
2022/07/07 05:23:57;;;;;;;10.85;2.17;;;;;;;;;;6043282;23;20019;-80
2022/07/07 05:26:24;;;;;;;10.25;1.42;;;;;;;;;;6069476;23;20812;-80
2022/07/07 05:28:51;;;;;;;12.63;2.72;;;;;;;;;;6069079;23;20034;-81
2022/07/07 05:31:18;;;;;;;9.40;1.90;;;;;;;;;;6071181;23;20031;-80
2022/07/07 05:33:46;;;;;;;9.02;1.60;;;;;;;;;;6069380;23;20023;-80
2022/07/07 05:36:13;;;;;;;12.35;1.70;;;;;;;;;;6074735;23;20075;-81
2022/07/07 05:38:40;;;;;;;14.70;1.92;;;;;;;;;;6078200;23;20450;-81
2022/07/07 05:41:10;;;;;;;15.93;2.22;;;;;;;;;;6069790;23;20097;-81
2022/07/07 05:43:39;;;;;;;11.52;2.05;;;;;;;;;;6068456;23;21254;-81
2022/07/07 05:46:06;;;;;;;8.82;1.60;;;;;;;;;;6069238;23;20023;-81
2022/07/07 05:48:33;;;;;;;11.85;1.85;;;;;;;;;;6068427;23;20544;-81
2022/07/07 05:51:01;;;;;;;13.00;1.83;;;;;;;;;;6072039;23;20801;-81
2022/07/07 05:53:28;;;;;;;11.32;2.10;;;;;;;;;;6071420;23;20035;-81
2022/07/07 05:55:59;;;;;;;15.93;2.05;;;;;;;;;;6073276;23;20023;-81
2022/07/07 05:58:26;;;;;;;13.02;2.10;;;;;;;;;;6073429;23;20016;-82
2022/07/07 06:00:53;;;;;;;7.85;1.88;;;;;;;;;;6049669;23;20107;-82
2022/07/07 06:03:20;;;;;;;10.00;2.15;;;;;;;;;;6074329;23;20091;-82
2022/07/07 06:05:50;;;;;;;11.27;1.90;;;;;;;;;;6075685;23;20027;-81
2022/07/07 06:08:18;;;;;;;10.35;1.67;;;;;;;;;;6075895;23;20410;-81
2022/07/07 06:10:45;;;;;;;9.68;1.60;;;;;;;;;;6048931;23;20070;-83
2022/07/07 06:13:12;;;;;;;12.57;1.80;;;;;;;;;;6047486;23;20096;-82
2022/07/07 06:15:39;;;;;;;12.40;1.88;;;;;;;;;;6071921;23;20389;-83
2022/07/07 06:18:09;;;;;;;7.30;1.65;;;;;;;;;;6070864;23;20422;-82
2022/07/07 06:20:39;;;;;;;8.45;1.60;;;;;;;;;;6071766;23;20015;-81
2022/07/07 06:23:06;;;;;;;6.05;1.20;;;;;;;;;;6044651;23;20028;-81
2022/07/07 06:25:34;;;;;;;9.30;1.60;;;;;;;;;;6066953;23;20024;-82
2022/07/07 06:28:01;;;;;;;6.38;1.40;;;;;;;;;;6069168;23;20023;-80
2022/07/07 06:30:28;;;;;;;9.45;1.20;;;;;;;;;;6069854;23;20110;-81
2022/07/07 06:32:55;;;;;;;7.00;1.50;;;;;;;;;;6069749;23;20098;-81
2022/07/07 06:35:25;;;;;;;7.30;1.58;;;;;;;;;;6070255;23;20752;-80
2022/07/07 06:37:53;;;;;;;14.27;2.47;;;;;;;;;;6069213;23;20030;-81
2022/07/07 06:40:21;;;;;;;12.25;1.98;;;;;;;;;;6069693;23;20019;-79
2022/07/07 06:42:48;;;;;;;7.72;1.58;;;;;;;;;;6068551;23;20024;-81
2022/07/07 06:45:16;;;;;;;7.28;1.35;;;;;;;;;;6070266;23;20479;-81
2022/07/07 06:47:46;;;;;;;6.15;1.33;;;;;;;;;;6068967;23;20022;-81
2022/07/07 06:50:23;;;;;;;5.75;1.33;;;;;;;;;;6065375;23;20106;-81
2022/07/07 06:52:53;;;;;;;7.55;1.42;;;;;;;;;;6068068;23;20027;-83
2022/07/07 06:55:20;;;;;;;13.15;1.50;;;;;;;;;;6069234;23;20669;-81
2022/07/07 06:57:50;;;;;;;8.10;1.50;;;;;;;;;;6069350;23;20111;-80
2022/07/07 07:00:17;;;;;;;6.45;1.88;;;;;;;;;;6063807;23;20036;-83
2022/07/07 07:02:46;;;;;;;5.22;1.20;;;;;;;;;;6040244;23;20102;-82
2022/07/07 07:05:14;;;;;;;9.35;1.52;;;;;;;;;;6067908;23;20114;-81
2022/07/07 07:07:49;;;;;;;7.85;1.50;;;;;;;;;;6069252;23;20027;-81
2022/07/07 07:10:16;;;;;;;8.30;1.45;;;;;;;;;;6067625;23;20034;-81
2022/07/07 07:12:43;;;;;;;7.70;1.55;;;;;;;;;;6044135;23;20102;-82
2022/07/07 07:15:11;;;;;;;6.32;1.33;;;;;;;;;;6068890;23;20470;-81
2022/07/07 07:17:38;;;;;;;6.68;1.02;;;;;;;;;;6069697;23;20772;-82
2022/07/07 07:20:05;;;;;;;5.75;1.60;;;;;;;;;;6069185;23;20637;-81
2022/07/07 07:22:36;;;;;;;8.32;1.40;;;;;;;;;;6069440;23;20023;-82
2022/07/07 07:25:06;;;;;;;4.68;1.30;;;;;;;;;;6069359;23;20733;-82
2022/07/07 07:27:37;;;;;;;3.33;0.90;;;;;;;;;;6068859;23;20024;-82
2022/07/07 07:30:04;;;;;;;4.45;1.23;;;;;;;;;;6069255;23;20057;-82
2022/07/07 07:32:31;;;;;;;6.30;1.38;;;;;;;;;;6068259;23;20658;-82
2022/07/07 07:35:01;;;;;;;5.00;1.25;;;;;;;;;;6067581;23;20035;-82
2022/07/07 07:37:28;;;;;;;7.82;1.20;;;;;;;;;;6069545;23;20783;-82
2022/07/07 07:39:55;;;;;;;6.35;1.42;;;;;;;;;;6066773;23;20083;-82
2022/07/07 07:42:23;;;;;;;6.82;1.25;;;;;;;;;;6038250;23;20034;-82
2022/07/07 07:47:36;;;;;;;8.13;1.20;;;;;;;;;;6065293;23;20034;-83
2022/07/07 07:50:07;;;;;;;5.90;1.50;;;;;;;;;;6069077;23;20083;-82
2022/07/07 07:52:34;;;;;;;5.30;1.42;;;;;;;;;;6068580;23;20508;-81
2022/07/07 07:55:01;;;;;;;4.70;1.10;;;;;;;;;;6066349;23;20138;-80
2022/07/07 07:57:28;;;;;;;6.60;1.15;;;;;;;;;;6067467;23;20079;-81
2022/07/07 07:59:55;;;;;;;6.03;1.17;;;;;;;;;;6037730;23;20067;-81
2022/07/07 08:02:22;;;;;;;5.80;1.33;;;;;;;;;;6039645;23;20047;-81
2022/07/07 08:04:53;;;;;;;8.27;1.35;;;;;;;;;;6040164;23;20034;-80
2022/07/07 08:07:20;;;;;;;6.90;1.63;;;;;;;;;;6040651;23;20023;-80
2022/07/07 08:09:47;;;;;;;9.10;1.50;;;;;;;;;;6040353;23;20670;-81
2022/07/07 08:12:14;;;;;;;6.25;1.23;;;;;;;;;;6041558;23;20028;-80
2022/07/07 08:14:48;;;;;;;4.50;1.02;;;;;;;;;;6041273;23;20733;-81
2022/07/07 08:17:15;;;;;;;5.93;1.13;;;;;;;;;;6040439;23;20108;-81
2022/07/07 08:19:42;;;;;;;3.58;1.10;;;;;;;;;;6041287;23;20454;-81
2022/07/07 08:22:10;;;;;;;3.40;0.77;;;;;;;;;;6040984;23;20024;-81
2022/07/07 08:24:38;;;;;;;4.45;0.80;;;;;;;;;;6040924;23;20848;-81
2022/07/07 08:27:05;;;;;;;7.90;1.38;;;;;;;;;;6041340;23;20028;-82
2022/07/07 08:29:37;;;;;;;7.05;1.33;;;;;;;;;;6039997;23;20573;-80
2022/07/07 08:32:11;;;;;;;6.53;1.10;;;;;;;;;;6039628;23;20102;-80
2022/07/07 08:34:39;;;;;;;3.80;1.40;;;;;;;;;;6040796;23;20028;-81
2022/07/07 08:37:12;;;;;;;7.22;1.38;;;;;;;;;;6040212;23;20573;-82
2022/07/07 08:39:39;;;;;;;5.05;1.30;;;;;;;;;;6042043;23;20034;-80
2022/07/07 08:42:07;;;;;;;6.05;1.15;;;;;;;;;;6038660;23;20019;-83
2022/07/07 08:44:34;;;;;;;5.07;1.23;;;;;;;;;;6024831;23;20023;-83
2022/07/07 08:47:01;;;;;;;6.45;0.93;;;;;;;;;;6035265;23;20752;-81
2022/07/07 08:49:28;;;;;;;5.88;1.00;;;;;;;;;;6035205;23;20062;-81
2022/07/07 08:51:57;;;;;;;5.95;1.20;;;;;;;;;;6036258;23;20479;-83
2022/07/07 08:54:25;;;;;;;5.03;1.00;;;;;;;;;;6047529;23;20031;-80
2022/07/07 08:56:53;;;;;;;5.68;0.85;;;;;;;;;;6043319;23;20469;-80
2022/07/07 08:59:20;;;;;;;3.97;1.00;;;;;;;;;;6077001;23;20027;-80
2022/07/07 09:01:57;;;;;;;4.65;1.10;;;;;;;;;;6069353;23;20750;-83
2022/07/07 09:04:24;;;;;;;5.07;0.80;;;;;;;;;;6068780;23;20027;-81
2022/07/07 09:06:52;;;;;;;7.78;1.08;;;;;;;;;;6068860;23;20874;-82
2022/07/07 09:10:00;;;;;;;3.65;0.90;;;;;;;;;;6068667;23;20063;-82
2022/07/07 09:12:33;;;;;;;5.20;1.23;;;;;;;;;;5979576;23;20879;-82
2022/07/07 09:15:06;;;;;;;3.47;0.75;;;;;;;;;;5979355;23;20066;-81
2022/07/07 09:17:35;;;;;;;3.58;1.00;;;;;;;;;;5979352;23;20021;-81
2022/07/07 09:20:07;;;;;;;4.53;0.80;;;;;;;;;;5978960;23;20032;-82
2022/07/07 09:22:41;;;;;;;5.75;1.08;;;;;;;;;;5980756;23;20029;-82
2022/07/07 09:25:09;;;;;;;3.50;1.20;;;;;;;;;;5974892;23;20024;-82
2022/07/07 09:27:54;;;;;;;4.43;1.00;;;;;;;;;;5980990;23;20069;-82
2022/07/07 09:30:31;;;;;;;3.15;0.88;;;;;;;;;;5979503;23;20036;-83
2022/07/07 09:33:01;;;;;;;3.35;1.10;;;;;;;;;;5979605;23;20109;-82
2022/07/07 09:38:22;;;;;;;2.55;0.70;;;;;;;;;;5979894;23;20029;-82
2022/07/07 09:40:53;;;;;;;1.88;0.80;;;;;;;;;;5979510;23;20046;-83
2022/07/07 09:43:20;;;;;;;2.97;0.65;;;;;;;;;;6025333;23;20024;-81
2022/07/07 09:45:48;;;;;;;5.07;0.90;;;;;;;;;;6067702;23;20099;-82
2022/07/07 09:48:16;;;;;;;2.00;0.80;;;;;;;;;;6068478;23;20098;-82
2022/07/07 09:50:46;;;;;;;3.03;0.75;;;;;;;;;;6067824;23;20058;-81
2022/07/07 09:53:13;;;;;;;1.92;0.82;;;;;;;;;;6067512;23;20050;-82
2022/07/07 09:55:42;;;;;;;3.35;1.08;;;;;;;;;;6069154;23;20020;-82
2022/07/07 09:58:10;;;;;;;4.50;1.00;;;;;;;;;;6068209;23;20030;-81
2022/07/07 10:00:38;;;;;;;6.90;1.02;;;;;;;;;;6043515;23;20745;-81
2022/07/07 10:03:05;;;;;;;2.38;0.73;;;;;;;;;;6067215;23;20034;-81
2022/07/07 10:05:33;;;;;;;2.20;0.85;;;;;;;;;;6042358;23;20642;-81
2022/07/07 10:08:00;;;;;;;3.55;1.00;;;;;;;;;;6069032;23;20047;-81
2022/07/07 10:10:30;;;;;;;6.18;0.88;;;;;;;;;;6067943;23;20893;-81
2022/07/07 10:13:02;;;;;;;3.33;0.98;;;;;;;;;;6069988;23;20042;-81
2022/07/07 10:15:30;;;;;;;3.00;1.27;;;;;;;;;;6069593;23;20107;-82
2022/07/07 10:17:57;;;;;;;5.72;1.73;;;;;;;;;;6043633;23;20525;-81
2022/07/07 10:20:26;;;;;;;2.97;1.02;;;;;;;;;;6069523;23;20027;-81
2022/07/07 10:22:53;;;;;;;5.03;1.52;;;;;;;;;;6044696;23;20015;-82
2022/07/07 10:25:52;;;;;;;4.30;1.45;;;;;;;;;;6043937;23;20066;-82
2022/07/07 10:28:19;;;;;;;5.63;1.35;;;;;;;;;;6057702;23;20935;-81
2022/07/07 10:30:47;;;;;;;6.20;1.40;;;;;;;;;;6044448;23;20031;-81
2022/07/07 10:33:14;;;;;;;7.20;1.75;;;;;;;;;;6068663;23;20442;-81
2022/07/07 10:35:42;;;;;;;10.05;2.00;;;;;;;;;;6069533;23;20039;-81
2022/07/07 10:38:15;;;;;;;7.53;1.75;;;;;;;;;;6069411;23;20110;-82
2022/07/07 10:40:51;;;;;;;8.85;1.58;;;;;;;;;;6046848;23;20055;-83
2022/07/07 10:43:33;;;;;;;6.30;1.40;;;;;;;;;;6045106;23;20031;-82
2022/07/07 10:46:11;;;;;;;4.93;1.02;;;;;;;;;;6071264;23;20038;-82
2022/07/07 10:48:56;;;;;;;4.57;1.23;;;;;;;;;;6071014;23;20079;-83
2022/07/07 10:51:29;;;;;;;6.10;1.27;;;;;;;;;;6071037;23;20031;-81
2022/07/07 10:53:58;;;;;;;4.22;1.30;;;;;;;;;;6046027;23;20047;-82
2022/07/07 10:56:28;;;;;;;5.55;1.33;;;;;;;;;;6072761;23;20023;-82
2022/07/07 10:58:58;;;;;;;7.07;1.65;;;;;;;;;;6072827;23;20019;-81
2022/07/07 11:01:28;;;;;;;7.82;1.70;;;;;;;;;;6046740;23;20381;-81
2022/07/07 11:03:56;;;;;;;4.40;1.67;;;;;;;;;;6044068;23;20043;-81
2022/07/07 11:06:23;;;;;;;6.68;1.70;;;;;;;;;;6046583;23;20028;-81
2022/07/07 11:09:03;;;;;;;5.65;1.35;;;;;;;;;;6048153;23;20525;-81
2022/07/07 11:11:36;;;;;;;3.50;1.25;;;;;;;;;;6071911;23;20079;-81
2022/07/07 11:14:08;;;;;;;4.67;1.27;;;;;;;;;;6070885;23;20066;-81
2022/07/07 11:16:59;;;;;;;2.35;1.00;;;;;;;;;;6071364;23;20023;-80
2022/07/07 11:19:34;;;;;;;2.92;1.30;;;;;;;;;;6071221;23;20122;-81
2022/07/07 11:22:16;;;;;;;5.25;1.20;;;;;;;;;;6070854;23;20358;-81
2022/07/07 11:24:46;;;;;;;4.57;1.20;;;;;;;;;;6074715;23;20098;-81
2022/07/07 11:27:13;;;;;;;6.55;1.40;;;;;;;;;;6070216;23;20026;-80
2022/07/07 11:29:43;;;;;;;6.40;1.40;;;;;;;;;;6070498;23;20515;-81
2022/07/07 11:32:10;;;;;;;4.70;1.40;;;;;;;;;;6043572;23;20031;-82
2022/07/07 11:34:42;;;;;;;3.85;1.33;;;;;;;;;;6070991;23;20027;-81
2022/07/07 11:37:19;;;;;;;4.22;1.10;;;;;;;;;;6046830;23;20027;-83
2022/07/07 11:39:46;;;;;;;6.65;1.38;;;;;;;;;;6071371;23;20076;-82
2022/07/07 11:42:16;;;;;;;9.60;1.60;;;;;;;;;;6046639;23;20031;-82
2022/07/07 11:44:44;;;;;;;5.25;1.13;;;;;;;;;;6072350;23;20027;-82
2022/07/07 11:47:11;;;;;;;8.50;1.40;;;;;;;;;;6072782;23;20031;-83
2022/07/07 11:49:40;;;;;;;4.20;1.45;;;;;;;;;;6046150;23;20031;-81
2022/07/07 11:52:13;;;;;;;7.38;1.50;;;;;;;;;;6071555;23;20039;-82
2022/07/07 11:54:49;;;;;;;8.75;1.67;;;;;;;;;;6071269;23;20020;-81
2022/07/07 11:57:31;;;;;;;10.18;1.80;;;;;;;;;;6045323;23;20083;-81
2022/07/07 12:00:17;;;;;;;10.85;1.90;;;;;;;;;;6069924;23;20033;-81
2022/07/07 12:02:46;;;;;;;14.48;1.90;;;;;;;;;;6071436;23;20058;-82
2022/07/07 12:05:16;;;;;;;10.85;2.00;;;;;;;;;;6070904;23;20031;-82
2022/07/07 12:08:02;;;;;;;9.88;1.52;;;;;;;;;;6045966;23;20084;-82
2022/07/07 12:10:38;;;;;;;6.70;1.70;;;;;;;;;;6046230;23;20027;-81
2022/07/07 12:13:16;;;;;;;6.20;1.50;;;;;;;;;;6048229;23;20035;-82
2022/07/07 12:15:45;;;;;;;8.55;1.70;;;;;;;;;;6049084;23;20027;-81
2022/07/07 12:18:13;;;;;;;7.53;1.52;;;;;;;;;;6048183;23;20027;-82
2022/07/07 12:20:41;;;;;;;9.43;1.70;;;;;;;;;;6047315;23;20115;-82
2022/07/07 12:23:17;;;;;;;5.72;1.55;;;;;;;;;;6069633;23;20067;-82
2022/07/07 12:25:44;;;;;;;7.20;1.50;;;;;;;;;;6071604;23;20130;-81
2022/07/07 12:28:17;;;;;;;11.60;1.70;;;;;;;;;;6072014;23;20023;-81
2022/07/07 12:30:51;;;;;;;10.07;2.03;;;;;;;;;;6070097;23;20027;-81
2022/07/07 12:33:45;;;;;;;5.85;1.63;;;;;;;;;;6071027;23;21159;-81
2022/07/07 12:36:12;;;;;;;;;;;;;;;;;;6068135;23;20087;-83
2022/07/07 12:38:44;;;;;;;9.25;1.90;;;;;;;;;;6071094;23;43735;-81
2022/07/07 12:41:21;;;;;;;5.28;1.63;;;;;;;;;;6070441;23;20023;-81
2022/07/07 12:43:49;;;;;;;4.57;1.65;;;;;;;;;;6045209;23;20058;-83
2022/07/07 12:46:19;;;;;;;9.07;1.70;;;;;;;;;;6072109;23;20458;-82
2022/07/07 12:48:48;;;;;;;16.80;2.72;;;;;;;;;;6073126;23;20043;-81
2022/07/07 12:51:16;;;;;;;13.05;2.83;;;;;;;;;;6070596;23;20023;-81
2022/07/07 12:53:46;;;;;;;17.17;2.33;;;;;;;;;;6072281;23;20020;-81
2022/07/07 12:56:21;;;;;;;16.83;2.45;;;;;;;;;;6070328;23;20034;-81
2022/07/07 12:58:57;;;;;;;10.80;2.17;;;;;;;;;;6071072;23;20242;-81
2022/07/07 13:01:25;;;;;;;14.65;2.63;;;;;;;;;;6071625;23;20031;-82
2022/07/07 13:03:55;;;;;;;14.63;2.38;;;;;;;;;;6071850;23;20027;-82
2022/07/07 13:06:23;;;;;;;13.25;2.50;;;;;;;;;;6070800;23;20033;-82
2022/07/07 13:08:51;;;;;;;16.38;3.35;;;;;;;;;;6069626;23;20023;-81
2022/07/07 13:11:39;;;;;;;10.50;2.40;;;;;;;;;;6069750;23;20024;-83
2022/07/07 13:14:07;;;;;;;13.00;2.63;;;;;;;;;;6070211;23;20110;-82
2022/07/07 13:16:52;;;;;;;10.85;2.25;;;;;;;;;;6070134;23;20034;-81
2022/07/07 13:19:25;;;;;;;12.68;2.45;;;;;;;;;;6071487;23;20053;-82
2022/07/07 13:21:58;;;;;;;14.48;2.42;;;;;;;;;;6046913;23;20026;-83
2022/07/07 13:24:25;;;;;;;11.32;1.90;;;;;;;;;;6071489;23;20792;-81
2022/07/07 13:26:56;;;;;;;12.52;2.00;;;;;;;;;;6070011;23;20083;-83
2022/07/07 13:29:23;;;;;;;12.77;1.88;;;;;;;;;;6072680;23;20410;-81
2022/07/07 13:31:50;;;;;;;12.65;2.50;;;;;;;;;;6071115;23;20026;-81
2022/07/07 13:34:20;;;;;;;14.60;2.42;;;;;;;;;;6045206;23;20728;-81
2022/07/07 13:36:53;;;;;;;12.15;1.80;;;;;;;;;;6045658;23;20031;-82
2022/07/07 13:39:21;;;;;;;11.20;1.85;;;;;;;;;;6044805;23;20087;-81
2022/07/07 13:41:49;;;;;;;8.73;1.77;;;;;;;;;;6069610;23;20027;-81
2022/07/07 13:44:36;;;;;;;8.00;1.70;;;;;;;;;;6048693;23;20038;-82
2022/07/07 13:47:04;;;;;;;13.15;2.50;;;;;;;;;;6069431;23;20027;-81
2022/07/07 13:49:32;;;;;;;8.27;1.50;;;;;;;;;;6043149;23;20046;-82
2022/07/07 13:51:59;;;;;;;12.27;2.15;;;;;;;;;;6070050;23;20656;-81
2022/07/07 13:54:42;;;;;;;10.38;2.08;;;;;;;;;;6048346;23;20877;-81
2022/07/07 13:57:10;;;;;;;9.90;2.60;;;;;;;;;;6046652;23;20808;-82
2022/07/07 13:59:41;;;;;;;12.70;1.80;;;;;;;;;;6067125;23;20027;-85
2022/07/07 14:02:10;;;;;;;9.13;2.20;;;;;;;;;;6072749;23;20026;-81
2022/07/07 14:04:38;;;;;;;12.02;2.33;;;;;;;;;;6073831;23;20020;-81
2022/07/07 14:07:05;;;;;;;10.95;1.80;;;;;;;;;;6073581;23;20434;-82
2022/07/07 14:09:35;;;;;;;11.93;2.05;;;;;;;;;;6070606;23;20793;-81
2022/07/07 14:12:06;;;;;;;12.23;2.63;;;;;;;;;;6069810;23;20027;-83
2022/07/07 14:14:36;;;;;;;12.73;2.25;;;;;;;;;;6069877;23;20028;-80
2022/07/07 14:17:14;;;;;;;15.00;2.10;;;;;;;;;;6069781;23;20027;-82
2022/07/07 14:19:41;;;;;;;9.30;2.03;;;;;;;;;;6072951;23;20035;-82
2022/07/07 14:22:09;;;;;;;8.45;1.80;;;;;;;;;;6072575;23;20791;-81
2022/07/07 14:24:41;;;;;;;12.45;2.33;;;;;;;;;;6071954;23;20050;-81
2022/07/07 14:27:08;;;;;;;15.63;2.15;;;;;;;;;;6075167;23;20048;-81
2022/07/07 14:29:36;;;;;;;10.35;2.17;;;;;;;;;;6072914;23;20927;-81
2022/07/07 14:32:12;;;;;;;13.02;2.00;;;;;;;;;;6073998;23;20629;-81
2022/07/07 14:34:42;;;;;;;14.13;2.05;;;;;;;;;;6072960;23;20102;-81
2022/07/07 14:37:09;;;;;;;11.50;2.00;;;;;;;;;;6071098;23;20023;-81
2022/07/07 14:39:36;;;;;;;11.07;1.88;;;;;;;;;;6072762;23;20829;-81
2022/07/07 14:42:07;;;;;;;8.90;2.15;;;;;;;;;;6072633;23;20816;-82
2022/07/07 14:44:34;;;;;;;7.63;1.85;;;;;;;;;;6074540;23;20091;-81
2022/07/07 14:47:01;;;;;;;16.20;2.35;;;;;;;;;;6073121;23;20056;-81
2022/07/07 14:49:31;;;;;;;11.80;2.08;;;;;;;;;;6073912;23;20083;-81
2022/07/07 14:51:59;;;;;;;11.43;2.38;;;;;;;;;;6075839;23;20028;-81
2022/07/07 14:54:26;;;;;;;9.52;1.95;;;;;;;;;;6075193;23;20182;-81
2022/07/07 14:56:54;;;;;;;10.80;2.03;;;;;;;;;;6074711;23;20044;-82